.
WxDataArchive / Data Records for 2015-01-31
2015-01-30 January 2015 2015-02-01

Data Records for Saturday, 31 January 2015

Time	Temp	Chill	HIndex	Humid	Dewpt	 Wind 	HiWind	WindDir	Rain 	Barom
-----	----	-----	------	-----	-----	------	------	-------	-----	-----
00:00	15.4	15.4	15.4	82	10.9	0	0	---	0.00	30.429 
00:05	15.2	15.2	15.2	83	11.0	0	0	---	0.00	30.429 
00:10	15.1	15.1	15.1	83	10.9	0	0	---	0.00	30.429 
00:15	15.1	15.1	15.1	84	11.2	0	0	---	0.00	30.427 
00:20	15.2	15.2	15.2	84	11.3	0	0	---	0.00	30.427 
00:25	15.2	15.2	15.2	84	11.3	0	0	---	0.00	30.427 
00:30	15.2	15.2	15.2	84	11.3	0	0	---	0.00	30.416 
00:35	15.4	15.4	15.4	84	11.4	0	0	---	0.00	30.416 
00:40	15.4	15.4	15.4	84	11.4	0	0	---	0.00	30.416 
00:45	15.4	15.4	15.4	84	11.4	0	0	---	0.00	30.412 
00:50	15.6	15.6	15.6	84	11.6	0	0	---	0.00	30.412 
00:55	15.6	15.6	15.6	84	11.6	0	0	---	0.00	30.412 
01:00	15.6	15.6	15.6	84	11.6	0	0	---	0.00	30.410 
01:05	15.6	15.6	15.6	84	11.6	0	0	---	0.00	30.410 
01:10	15.6	15.6	15.6	84	11.6	0	0	---	0.00	30.410 
01:15	15.4	15.4	15.4	84	11.4	0	0	---	0.00	30.409 
01:20	15.4	15.4	15.4	85	11.7	0	0	---	0.00	30.409 
01:25	15.2	15.2	15.2	85	11.5	0	0	---	0.00	30.409 
01:30	15.1	15.1	15.1	85	11.4	0	0	---	0.00	30.404 
01:35	15.2	15.2	15.2	85	11.5	0	0	---	0.00	30.404 
01:40	15.1	15.1	15.1	85	11.4	0	0	---	0.00	30.404 
01:45	15.1	15.1	15.1	85	11.4	0	0	---	0.00	30.396 
01:50	15.1	15.1	15.1	85	11.4	0	0	---	0.00	30.396 
01:55	14.9	14.9	14.9	85	11.2	0	0	---	0.00	30.396 
02:00	14.9	14.9	14.9	85	11.2	0	0	---	0.00	30.394 
02:05	14.9	14.9	14.9	85	11.2	0	0	---	0.00	30.394 
02:10	14.9	14.9	14.9	85	11.2	0	0	---	0.00	30.394 
02:15	14.9	14.9	14.9	85	11.2	0	0	---	0.00	30.396 
02:20	14.8	14.8	14.8	85	11.1	0	0	---	0.00	30.396 
02:25	14.6	14.6	14.6	85	10.9	0	0	---	0.00	30.396 
02:30	14.6	14.6	14.6	85	10.9	0	0	---	0.00	30.394 
02:35	14.4	14.4	14.4	85	10.7	0	0	---	0.00	30.394 
02:40	14.4	14.4	14.4	85	10.7	0	0	---	0.00	30.394 
02:45	14.3	14.3	14.3	85	10.6	0	0	---	0.00	30.390 
02:50	14.1	14.1	14.1	85	10.4	0	0	---	0.00	30.390 
02:55	14.1	14.1	14.1	85	10.4	0	0	---	0.00	30.390 
03:00	14.1	14.1	14.1	85	10.4	0	0	---	0.00	30.387 
03:05	14.0	14.0	14.0	85	10.3	0	0	---	0.00	30.387 
03:10	13.8	13.8	13.8	86	10.4	0	0	---	0.00	30.387 
03:15	13.8	13.8	13.8	86	10.4	0	0	---	0.00	30.384 
03:20	13.8	13.8	13.8	86	10.4	0	0	---	0.00	30.384 
03:25	13.8	13.8	13.8	86	10.4	0	0	---	0.00	30.384 
03:30	13.8	13.8	13.8	86	10.4	0	0	---	0.00	30.381 
03:35	14.0	14.0	14.0	86	10.6	0	0	---	0.00	30.381 
03:40	14.0	14.0	14.0	86	10.6	0	0	---	0.00	30.381 
03:45	14.0	14.0	14.0	86	10.6	0	0	---	0.00	30.376 
03:50	14.1	14.1	14.1	86	10.7	0	0	---	0.00	30.376 
03:55	14.1	14.1	14.1	87	11.0	0	0	---	0.00	30.376 
04:00	14.4	14.4	14.4	87	11.3	0	0	---	0.00	30.362 
04:05	14.6	14.6	14.6	87	11.4	0	0	---	0.00	30.362 
04:10	14.6	14.6	14.6	87	11.4	0	0	---	0.00	30.362 
04:15	14.6	14.6	14.6	87	11.4	0	0	---	0.00	30.358 
04:20	14.6	14.6	14.6	87	11.4	0	0	---	0.00	30.358 
04:25	14.6	14.6	14.6	87	11.4	0	0	---	0.00	30.358 
04:30	14.4	14.4	14.4	87	11.3	0	0	---	0.00	30.364 
04:35	14.3	14.3	14.3	87	11.2	0	0	---	0.00	30.364 
04:40	14.1	14.1	14.1	87	11.0	0	0	---	0.00	30.364 
04:45	14.3	14.3	14.3	87	11.2	0	0	---	0.00	30.361 
04:50	14.3	14.3	14.3	87	11.2	0	0	---	0.00	30.361 
04:55	14.4	14.4	14.4	88	11.5	0	0	---	0.00	30.361 
05:00	14.6	14.6	14.6	87	11.4	0	0	---	0.00	30.360 
05:05	14.8	14.8	14.8	87	11.6	0	0	---	0.00	30.360 
05:10	14.8	14.8	14.8	88	11.9	0	0	---	0.00	30.360 
05:15	14.9	14.9	14.9	88	12.0	0	0	---	0.00	30.357 
05:20	14.9	14.9	14.9	87	11.7	0	0	---	0.00	30.357 
05:25	14.8	14.8	14.8	87	11.6	0	0	---	0.00	30.357 
05:30	14.8	14.8	14.8	87	11.6	0	0	---	0.00	30.356 
05:35	14.6	14.6	14.6	87	11.4	0	0	---	0.00	30.356 
05:40	14.4	14.4	14.4	87	11.3	0	0	---	0.00	30.356 
05:45	14.4	14.4	14.4	87	11.3	0	0	---	0.00	30.352 
05:50	14.4	14.4	14.4	87	11.3	0	0	---	0.00	30.352 
05:55	14.4	14.4	14.4	87	11.3	0	0	---	0.00	30.352 
06:00	14.4	14.4	14.4	87	11.3	0	0	---	0.00	30.353 
06:05	14.6	14.6	14.6	88	11.7	0	1	292	0.00	30.353 
06:10	14.9	14.9	14.9	88	12.0	0	0	---	0.00	30.353 
06:15	15.4	15.4	15.4	88	12.5	0	0	---	0.00	30.343 
06:20	15.9	15.9	15.9	88	13.0	0	0	---	0.00	30.343 
06:25	16.2	16.2	16.2	88	13.3	0	0	---	0.00	30.343 
06:30	16.5	16.5	16.5	88	13.6	0	0	---	0.00	30.348 
06:35	16.9	16.9	16.9	88	14.0	0	0	---	0.00	30.348 
06:40	17.2	17.2	17.2	88	14.3	0	0	---	0.00	30.348 
06:45	17.3	17.3	17.3	88	14.4	0	0	---	0.00	30.347 
06:50	17.7	17.7	17.7	88	14.8	0	1	292	0.00	30.347 
06:55	18.0	18.0	18.0	88	15.1	0	0	---	0.00	30.347 
07:00	18.1	18.1	18.1	88	15.2	0	0	---	0.00	30.341 
07:05	18.4	18.4	18.4	88	15.5	0	1	292	0.00	30.341 
07:10	18.6	18.6	18.6	88	15.6	0	1	292	0.00	30.341 
07:15	18.9	18.9	18.9	88	15.9	0	0	---	0.00	30.340 
07:20	19.1	19.1	19.1	88	16.1	0	1	292	0.00	30.340 
07:25	19.1	19.1	19.1	88	16.1	0	1	292	0.00	30.340 
07:30	19.2	19.2	19.2	87	16.0	0	0	---	0.00	30.334 
07:35	19.2	19.2	19.2	87	16.0	0	1	292	0.00	30.334 
07:40	19.2	19.2	19.2	86	15.7	0	1	292	0.00	30.334 
07:45	19.2	19.2	19.2	86	15.7	0	0	---	0.00	30.338 
07:50	19.4	19.4	19.4	86	15.9	0	0	---	0.00	30.338 
07:55	19.2	19.2	19.2	85	15.4	0	0	---	0.00	30.338 
08:00	19.2	19.2	19.2	85	15.4	0	0	---	0.00	30.338 
08:05	19.2	19.2	19.2	85	15.4	0	0	---	0.00	30.338 
08:10	19.2	19.2	19.2	85	15.4	0	0	---	0.00	30.338 
08:15	19.2	19.2	19.2	84	15.2	0	0	---	0.00	30.341 
08:20	19.4	19.4	19.4	84	15.4	0	0	---	0.00	30.341 
08:25	19.5	19.5	19.5	84	15.5	0	1	292	0.00	30.341 
08:30	19.9	19.9	19.9	85	16.1	0	1	292	0.00	30.338 
08:35	20.3	20.3	20.3	84	16.3	0	1	292	0.00	30.338 
08:40	20.5	20.5	20.5	84	16.4	0	1	292	0.00	30.338 
08:45	20.8	20.8	20.8	84	16.7	0	1	292	0.00	30.334 
08:50	21.1	21.1	21.1	83	16.8	0	1	292	0.00	30.334 
08:55	21.6	21.6	21.6	83	17.3	0	1	292	0.00	30.334 
09:00	22.1	22.1	22.1	82	17.5	0	3	292	0.00	30.335 
09:05	22.5	22.5	22.5	81	17.6	0	1	292	0.00	30.335 
09:10	22.9	22.9	22.9	80	17.7	0	1	292	0.00	30.335 
09:15	23.2	23.2	23.2	80	18.0	0	1	292	0.00	30.330 
09:20	23.5	23.5	23.5	79	18.0	0	2	292	0.00	30.330 
09:25	23.8	23.8	23.8	78	18.0	0	1	292	0.00	30.330 
09:30	24.2	24.2	24.2	77	18.1	0	1	292	0.00	30.329 
09:35	24.5	24.5	24.5	77	18.3	0	1	292	0.00	30.329 
09:40	25.1	25.1	25.1	76	18.6	0	1	292	0.00	30.329 
09:45	25.6	25.6	25.6	74	18.5	0	2	292	0.00	30.327 
09:50	25.8	25.8	25.8	73	18.4	0	2	292	0.00	30.327 
09:55	26.3	26.3	26.3	72	18.5	0	2	292	0.00	30.327 
10:00	26.6	26.6	26.6	71	18.5	0	1	292	0.00	30.324 
10:05	27.0	27.0	27.0	71	18.9	0	3	292	0.00	30.324 
10:10	27.3	27.3	27.3	70	18.8	0	2	292	0.00	30.324 
10:15	27.6	27.6	27.6	69	18.8	0	2	292	0.00	30.326 
10:20	27.9	27.9	27.9	69	19.1	0	2	292	0.00	30.326 
10:25	28.2	28.2	28.2	68	19.0	0	2	292	0.00	30.326 
10:30	28.7	28.7	28.7	68	19.5	0	4	112	0.00	30.323 
10:35	28.8	28.8	28.8	67	19.2	0	3	248	0.00	30.323 
10:40	29.1	29.1	29.1	66	19.2	1	4	248	0.00	30.323 
10:45	29.3	29.3	29.3	65	19.0	1	4	248	0.00	30.317 
10:50	29.5	29.5	29.5	65	19.2	1	5	248	0.00	30.317 
10:55	29.7	29.7	29.7	65	19.4	1	3	248	0.00	30.317 
11:00	30.1	30.1	30.1	65	19.8	0	3	248	0.00	30.313 
11:05	30.4	30.4	30.4	64	19.7	1	5	248	0.00	30.313 
11:10	30.6	30.6	30.6	63	19.5	1	3	248	0.00	30.313 
11:15	30.9	30.9	30.9	63	19.8	2	4	248	0.00	30.311 
11:20	31.2	31.2	31.2	63	20.1	1	3	248	0.00	30.311 
11:25	31.5	31.5	31.5	62	20.0	1	4	248	0.00	30.311 
11:30	31.8	31.8	31.8	62	20.3	1	3	248	0.00	30.309 
11:35	32.1	32.1	32.1	61	20.2	1	3	248	0.00	30.309 
11:40	32.2	32.2	32.2	61	20.3	1	3	248	0.00	30.309 
11:45	32.4	32.4	32.4	61	20.5	1	4	248	0.00	30.303 
11:50	32.7	32.7	32.7	61	20.8	1	5	248	0.00	30.303 
11:55	32.9	32.9	32.9	59	20.2	1	5	248	0.00	30.303 
12:00	33.1	33.1	33.1	59	20.4	1	7	248	0.00	30.291 
12:05	33.4	33.4	33.4	59	20.6	1	5	248	0.00	30.291 
12:10	33.5	33.5	33.5	59	20.7	1	4	270	0.00	30.291 
12:15	33.8	33.8	33.8	58	20.6	1	5	270	0.00	30.278 
12:20	34.1	34.1	34.1	58	20.9	0	1	270	0.00	30.278 
12:25	34.7	34.7	34.7	58	21.5	1	7	270	0.00	30.278 
12:30	34.7	34.7	34.7	56	20.6	2	4	248	0.00	30.272 
12:35	34.7	34.7	34.7	56	20.6	1	4	248	0.00	30.272 
12:40	35.0	35.0	35.0	55	20.5	1	5	270	0.00	30.272 
12:45	35.2	35.2	35.2	55	20.7	1	5	270	0.00	30.265 
12:50	35.0	35.0	35.0	54	20.1	2	6	248	0.00	30.265 
12:55	35.3	35.3	35.3	56	21.2	1	4	248	0.00	30.265 
13:00	35.5	35.5	35.5	56	21.4	1	6	248	0.00	30.257 
13:05	35.5	35.5	35.5	55	21.0	2	5	270	0.00	30.257 
13:10	35.6	35.6	35.6	55	21.0	1	5	270	0.00	30.257 
13:15	35.6	35.6	35.6	55	21.0	1	4	270	0.00	30.246 
13:20	35.9	35.9	35.9	55	21.3	1	4	248	0.00	30.246 
13:25	36.0	36.0	36.0	54	21.0	1	5	248	0.00	30.246 
13:30	36.0	36.0	36.0	54	21.0	1	6	270	0.00	30.241 
13:35	36.0	36.0	36.0	55	21.4	1	5	248	0.00	30.241 
13:40	36.2	36.2	36.2	55	21.6	0	3	248	0.00	30.241 
13:45	36.5	36.5	36.5	55	21.9	1	4	248	0.00	30.234 
13:50	36.5	36.5	36.5	54	21.5	1	5	248	0.00	30.234 
13:55	36.3	36.3	36.3	54	21.3	1	3	248	0.00	30.234 
14:00	36.3	36.3	36.3	55	21.7	1	3	248	0.00	30.226 
14:05	36.3	36.3	36.3	54	21.3	1	5	248	0.00	30.226 
14:10	36.3	36.3	36.3	55	21.7	1	3	248	0.00	30.226 
14:15	36.6	36.6	36.6	56	22.4	0	3	248	0.00	30.222 
14:20	37.0	37.0	37.0	55	22.4	1	3	248	0.00	30.222 
14:25	37.2	37.2	37.2	54	22.1	1	2	248	0.00	30.222 
14:30	37.2	37.2	37.2	55	22.5	1	6	248	0.00	30.220 
14:35	37.3	37.3	37.3	55	22.6	0	3	248	0.00	30.220 
14:40	37.5	37.5	37.5	54	22.4	1	4	248	0.00	30.220 
14:45	37.5	37.5	37.5	54	22.4	1	3	248	0.00	30.213 
14:50	37.5	37.5	37.5	54	22.4	1	5	248	0.00	30.213 
14:55	37.5	37.5	37.5	54	22.4	0	2	248	0.00	30.213 
15:00	37.5	37.5	37.5	54	22.4	1	4	248	0.00	30.213 
15:05	37.3	37.3	37.3	54	22.2	1	4	248	0.00	30.213 
15:10	37.2	37.2	37.2	54	22.1	2	5	248	0.00	30.213 
15:15	37.0	37.0	37.0	54	21.9	1	5	248	0.00	30.213 
15:20	36.9	36.9	36.9	55	22.3	1	2	248	0.00	30.213 
15:25	36.9	36.9	36.9	55	22.3	1	4	248	0.00	30.213 
15:30	37.0	37.0	37.0	56	22.8	1	4	248	0.00	30.210 
15:35	37.0	37.0	37.0	56	22.8	1	3	248	0.00	30.210 
15:40	37.2	37.2	37.2	57	23.4	0	2	248	0.00	30.210 
15:45	37.2	37.2	37.2	58	23.8	0	1	248	0.00	30.211 
15:50	37.2	37.2	37.2	58	23.8	0	2	248	0.00	30.211 
15:55	37.0	37.0	37.0	58	23.6	1	4	248	0.01	30.211 
16:00	36.8	36.8	36.8	58	23.4	1	3	248	0.00	30.212 
16:05	36.6	36.6	36.6	59	23.6	1	3	248	0.00	30.212 
16:10	36.5	36.5	36.5	60	24.0	0	2	248	0.00	30.212 
16:15	36.5	36.5	36.5	60	24.0	0	2	248	0.00	30.211 
16:20	36.5	36.5	36.5	60	24.0	0	3	248	0.00	30.211 
16:25	36.5	36.5	36.5	61	24.3	0	1	248	0.00	30.211 
16:30	36.3	36.3	36.3	61	24.2	0	2	248	0.00	30.210 
16:35	36.3	36.3	36.3	60	23.8	0	4	248	0.00	30.210 
16:40	36.2	36.2	36.2	60	23.7	0	2	248	0.00	30.210 
16:45	36.0	36.0	36.0	61	23.9	0	2	248	0.00	30.209 
16:50	36.0	36.0	36.0	61	23.9	0	2	248	0.00	30.209 
16:55	36.0	36.0	36.0	62	24.3	0	2	248	0.00	30.209 
17:00	35.9	35.9	35.9	62	24.2	0	2	248	0.00	30.206 
17:05	35.9	35.9	35.9	62	24.2	0	2	248	0.00	30.206 
17:10	35.9	35.9	35.9	63	24.5	0	2	248	0.00	30.206 
17:15	35.9	35.9	35.9	63	24.5	0	2	248	0.00	30.207 
17:20	35.8	35.8	35.8	63	24.5	0	1	248	0.00	30.207 
17:25	35.8	35.8	35.8	63	24.5	0	2	248	0.00	30.207 
17:30	35.8	35.8	35.8	63	24.5	0	1	248	0.00	30.209 
17:35	35.8	35.8	35.8	63	24.5	0	1	248	0.00	30.209 
17:40	35.6	35.6	35.6	63	24.3	0	1	248	0.00	30.209 
17:45	35.6	35.6	35.6	64	24.6	0	1	248	0.00	30.211 
17:50	35.6	35.6	35.6	64	24.6	0	2	248	0.00	30.211 
17:55	35.6	35.6	35.6	64	24.6	0	1	248	0.00	30.211 
18:00	35.6	35.6	35.6	64	24.6	0	2	248	0.00	30.216 
18:05	35.5	35.5	35.5	64	24.5	0	2	248	0.00	30.216 
18:10	35.6	35.6	35.6	64	24.6	0	1	248	0.00	30.216 
18:15	35.6	35.6	35.6	65	25.0	0	1	248	0.00	30.217 
18:20	35.5	35.5	35.5	65	24.9	0	1	248	0.00	30.217 
18:25	35.5	35.5	35.5	66	25.3	0	0	---	0.00	30.217 
18:30	35.3	35.3	35.3	66	25.1	0	1	248	0.00	30.217 
18:35	35.3	35.3	35.3	66	25.1	0	1	248	0.00	30.217 
18:40	35.3	35.3	35.3	67	25.5	0	2	248	0.00	30.217 
18:45	35.3	35.3	35.3	67	25.5	0	1	248	0.00	30.221 
18:50	35.3	35.3	35.3	68	25.8	0	1	248	0.00	30.221 
18:55	35.2	35.2	35.2	68	25.7	0	2	248	0.00	30.221 
19:00	35.2	35.2	35.2	68	25.7	0	1	248	0.00	30.222 
19:05	35.2	35.2	35.2	68	25.7	0	2	248	0.00	30.222 
19:10	35.2	35.2	35.2	68	25.7	0	1	248	0.00	30.222 
19:15	35.0	35.0	35.0	68	25.5	0	1	248	0.00	30.218 
19:20	35.0	35.0	35.0	68	25.5	0	2	248	0.00	30.218 
19:25	35.0	35.0	35.0	68	25.5	0	1	248	0.00	30.218 
19:30	35.0	35.0	35.0	68	25.5	0	3	248	0.00	30.215 
19:35	35.2	35.2	35.2	68	25.7	0	1	248	0.00	30.215 
19:40	35.2	35.2	35.2	68	25.7	0	3	248	0.00	30.215 
19:45	35.2	35.2	35.2	67	25.4	0	3	270	0.00	30.208 
19:50	35.2	35.2	35.2	67	25.4	0	2	270	0.00	30.208 
19:55	35.2	35.2	35.2	67	25.4	0	2	270	0.00	30.208 
20:00	35.2	35.2	35.2	67	25.4	0	2	270	0.00	30.207 
20:05	35.2	35.2	35.2	68	25.7	0	2	270	0.00	30.207 
20:10	35.2	35.2	35.2	68	25.7	0	2	270	0.00	30.207 
20:15	35.0	35.0	35.0	68	25.5	0	2	270	0.00	30.204 
20:20	35.0	35.0	35.0	68	25.5	0	2	270	0.00	30.204 
20:25	35.0	35.0	35.0	69	25.9	0	3	270	0.00	30.204 
20:30	35.0	35.0	35.0	69	25.9	0	1	270	0.00	30.203 
20:35	35.0	35.0	35.0	69	25.9	0	2	270	0.00	30.203 
20:40	35.0	35.0	35.0	69	25.9	0	1	270	0.00	30.203 
20:45	35.0	35.0	35.0	69	25.9	0	3	270	0.00	30.203 
20:50	35.0	35.0	35.0	69	25.9	0	2	270	0.00	30.203 
20:55	35.0	35.0	35.0	69	25.9	0	1	270	0.00	30.203 
21:00	35.0	35.0	35.0	70	26.2	0	1	270	0.00	30.202 
21:05	35.0	35.0	35.0	70	26.2	0	3	248	0.00	30.202 
21:10	35.0	35.0	35.0	71	26.6	0	2	248	0.00	30.202 
21:15	35.0	35.0	35.0	72	26.9	0	1	248	0.00	30.194 
21:20	35.0	35.0	35.0	73	27.2	1	4	248	0.00	30.194 
21:25	35.0	35.0	35.0	74	27.6	0	4	248	0.00	30.194 
21:30	35.0	35.0	35.0	74	27.6	0	2	248	0.00	30.191 
21:35	35.0	35.0	35.0	75	27.9	0	2	248	0.00	30.191 
21:40	34.9	34.9	34.9	76	28.1	0	2	248	0.00	30.191 
21:45	34.9	34.9	34.9	76	28.1	0	2	248	0.00	30.185 
21:50	34.9	34.9	34.9	76	28.1	0	2	248	0.00	30.185 
21:55	34.9	34.9	34.9	76	28.1	0	1	248	0.00	30.185 
22:00	34.9	34.9	34.9	76	28.1	0	1	248	0.00	30.183 
22:05	34.9	34.9	34.9	76	28.1	0	2	248	0.00	30.183 
22:10	34.9	34.9	34.9	76	28.1	0	2	248	0.00	30.183 
22:15	34.9	34.9	34.9	76	28.1	0	1	248	0.00	30.180 
22:20	34.9	34.9	34.9	76	28.1	0	1	248	0.00	30.180 
22:25	34.7	34.7	34.7	76	27.9	0	1	248	0.00	30.180 
22:30	34.7	34.7	34.7	76	27.9	0	1	248	0.00	30.179 
22:35	34.7	34.7	34.7	76	27.9	0	2	248	0.00	30.179 
22:40	34.7	34.7	34.7	76	27.9	0	1	248	0.00	30.179 
22:45	34.7	34.7	34.7	77	28.2	0	1	248	0.00	30.178 
22:50	34.7	34.7	34.7	77	28.2	0	1	248	0.00	30.178 
22:55	34.7	34.7	34.7	77	28.2	0	1	248	0.00	30.178 
23:00	34.7	34.7	34.7	78	28.6	0	2	248	0.00	30.176 
23:05	34.7	34.7	34.7	78	28.6	1	5	248	0.00	30.176 
23:10	34.7	34.7	34.7	79	28.9	0	2	248	0.00	30.176 
23:15	34.6	34.6	34.6	80	29.1	0	3	248	0.00	30.173 
23:20	34.4	34.4	34.4	81	29.2	0	1	248	0.00	30.173 
23:25	34.1	34.1	34.1	83	29.5	0	2	248	0.00	30.173 
23:30	34.0	34.0	34.0	84	29.7	0	2	248	0.00	30.177 
23:35	33.7	33.7	33.7	85	29.7	0	0	---	0.00	30.177 
23:40	33.5	33.5	33.5	85	29.5	0	1	248	0.00	30.177 
23:45	33.5	33.5	33.5	86	29.8	0	0	---	0.00	30.178 
23:50	33.4	33.4	33.4	87	30.0	0	1	248	0.00	30.178 
23:55	33.2	33.2	33.2	87	29.8	0	1	248	0.00	30.178 

CoCoRaHS
IN-AL-39
A2 Web Hosting
Creative Commons License
GoDaddy
search engine by freefind advanced

loaded 2018-11-15 05:36:28 • last modified 2010-11-18 10:43:29
Privacy PolicyDisclaimer
• wx.awcolley.com is powered by PmWiki v.2002016 •
• all content (unless otherwise noted) © 2018 A W Colley